sensor_id;sensor_type;location;lat;lon;timestamp;pressure;altitude;pressure_sealevel;temperature;humidity
31911;BME280;18457;52.432;16.914;2023-01-25T00:02:13;102661.84;;;2.65;90.88
31911;BME280;18457;52.432;16.914;2023-01-25T00:04:42;102660.55;;;2.68;90.97
31911;BME280;18457;52.432;16.914;2023-01-25T00:07:10;102664.13;;;2.69;91.12
31911;BME280;18457;52.432;16.914;2023-01-25T00:09:38;102668.92;;;2.72;91.32
31911;BME280;18457;52.432;16.914;2023-01-25T00:12:07;102668.02;;;2.68;91.66
31911;BME280;18457;52.432;16.914;2023-01-25T00:14:35;102670.00;;;2.60;91.75
31911;BME280;18457;52.432;16.914;2023-01-25T00:17:04;102674.77;;;2.55;91.93
31911;BME280;18457;52.432;16.914;2023-01-25T00:19:32;102665.27;;;2.49;92.51
31911;BME280;18457;52.432;16.914;2023-01-25T00:22:01;102661.42;;;2.44;92.44
31911;BME280;18457;52.432;16.914;2023-01-25T00:24:30;102661.18;;;2.50;92.43
31911;BME280;18457;52.432;16.914;2023-01-25T00:26:58;102665.27;;;2.50;92.90
31911;BME280;18457;52.432;16.914;2023-01-25T00:29:27;102663.41;;;2.52;92.33
31911;BME280;18457;52.432;16.914;2023-01-25T00:32:06;102661.73;;;2.62;92.15
31911;BME280;18457;52.432;16.914;2023-01-25T00:34:49;102663.00;;;2.63;91.99
31911;BME280;18457;52.432;16.914;2023-01-25T00:37:38;102658.88;;;2.58;92.04
31911;BME280;18457;52.432;16.914;2023-01-25T00:40:10;102659.65;;;2.44;92.06
31911;BME280;18457;52.432;16.914;2023-01-25T00:42:40;102666.90;;;2.35;92.23
31911;BME280;18457;52.432;16.914;2023-01-25T00:45:11;102668.27;;;2.34;92.94
31911;BME280;18457;52.432;16.914;2023-01-25T00:47:39;102671.79;;;2.29;93.76
31911;BME280;18457;52.432;16.914;2023-01-25T00:50:10;102674.05;;;2.28;94.07
31911;BME280;18457;52.432;16.914;2023-01-25T00:52:40;102668.91;;;2.40;94.48
31911;BME280;18457;52.432;16.914;2023-01-25T00:55:09;102673.36;;;2.51;93.47
31911;BME280;18457;52.432;16.914;2023-01-25T00:57:38;102673.25;;;2.49;93.32
31911;BME280;18457;52.432;16.914;2023-01-25T01:00:10;102665.05;;;2.49;93.25
31911;BME280;18457;52.432;16.914;2023-01-25T01:02:39;102663.00;;;2.55;93.14
31911;BME280;18457;52.432;16.914;2023-01-25T01:05:08;102667.66;;;2.51;92.68
31911;BME280;18457;52.432;16.914;2023-01-25T01:07:38;102667.59;;;2.42;92.89
31911;BME280;18457;52.432;16.914;2023-01-25T01:10:08;102664.33;;;2.45;93.21
31911;BME280;18457;52.432;16.914;2023-01-25T01:12:37;102664.02;;;2.38;93.34
31911;BME280;18457;52.432;16.914;2023-01-25T01:15:09;102662.23;;;2.38;93.10
31911;BME280;18457;52.432;16.914;2023-01-25T01:17:38;102662.18;;;2.45;93.11
31911;BME280;18457;52.432;16.914;2023-01-25T01:20:09;102662.09;;;2.39;92.37
31911;BME280;18457;52.432;16.914;2023-01-25T01:22:38;102664.60;;;2.36;92.49
31911;BME280;18457;52.432;16.914;2023-01-25T01:25:08;102664.04;;;2.35;92.41
31911;BME280;18457;52.432;16.914;2023-01-25T01:27:38;102664.84;;;2.37;92.07
31911;BME280;18457;52.432;16.914;2023-01-25T01:30:09;102663.63;;;2.38;92.22
31911;BME280;18457;52.432;16.914;2023-01-25T01:32:38;102663.14;;;2.38;92.67
31911;BME280;18457;52.432;16.914;2023-01-25T01:35:08;102664.16;;;2.30;93.26
31911;BME280;18457;52.432;16.914;2023-01-25T01:37:41;102661.66;;;2.37;92.65
31911;BME280;18457;52.432;16.914;2023-01-25T01:40:12;102659.29;;;2.40;93.24
31911;BME280;18457;52.432;16.914;2023-01-25T01:42:55;102658.48;;;2.34;93.74
31911;BME280;18457;52.432;16.914;2023-01-25T01:45:50;102658.98;;;2.41;93.52
31911;BME280;18457;52.432;16.914;2023-01-25T01:48:31;102654.51;;;2.41;93.78
31911;BME280;18457;52.432;16.914;2023-01-25T01:51:03;102655.39;;;2.33;94.10
31911;BME280;18457;52.432;16.914;2023-01-25T01:53:36;102646.34;;;2.38;93.95
31911;BME280;18457;52.432;16.914;2023-01-25T01:56:09;102645.66;;;2.39;94.27
31911;BME280;18457;52.432;16.914;2023-01-25T01:58:41;102647.10;;;2.31;94.51
31911;BME280;18457;52.432;16.914;2023-01-25T02:01:10;102642.55;;;2.29;94.04
31911;BME280;18457;52.432;16.914;2023-01-25T02:03:39;102640.18;;;2.32;93.65
31911;BME280;18457;52.432;16.914;2023-01-25T02:06:12;102636.42;;;2.27;94.01
31911;BME280;18457;52.432;16.914;2023-01-25T02:08:43;102635.33;;;2.31;94.02
31911;BME280;18457;52.432;16.914;2023-01-25T02:11:12;102635.00;;;2.20;94.51
31911;BME280;18457;52.432;16.914;2023-01-25T02:13:40;102636.38;;;2.15;95.22
31911;BME280;18457;52.432;16.914;2023-01-25T02:16:13;102630.80;;;2.10;95.64
31911;BME280;18457;52.432;16.914;2023-01-25T02:18:43;102624.84;;;2.05;95.98
31911;BME280;18457;52.432;16.914;2023-01-25T02:21:12;102622.67;;;2.04;96.36
31911;BME280;18457;52.432;16.914;2023-01-25T02:23:46;102617.65;;;2.00;96.57
31911;BME280;18457;52.432;16.914;2023-01-25T02:26:18;102617.48;;;2.00;96.90
31911;BME280;18457;52.432;16.914;2023-01-25T02:28:49;102616.40;;;2.03;96.94
31911;BME280;18457;52.432;16.914;2023-01-25T02:31:18;102612.11;;;2.07;96.74
31911;BME280;18457;52.432;16.914;2023-01-25T02:33:48;102611.50;;;2.05;96.65
31911;BME280;18457;52.432;16.914;2023-01-25T02:36:23;102617.27;;;1.99;97.43
31911;BME280;18457;52.432;16.914;2023-01-25T02:38:54;102617.71;;;1.94;97.72
31911;BME280;18457;52.432;16.914;2023-01-25T02:41:29;102618.12;;;1.94;98.02
31911;BME280;18457;52.432;16.914;2023-01-25T02:43:59;102609.36;;;1.97;97.53
31911;BME280;18457;52.432;16.914;2023-01-25T02:46:29;102609.48;;;2.04;96.97
31911;BME280;18457;52.432;16.914;2023-01-25T02:48:59;102604.14;;;2.08;97.09
31911;BME280;18457;52.432;16.914;2023-01-25T02:51:31;102593.63;;;2.08;97.17
31911;BME280;18457;52.432;16.914;2023-01-25T02:54:01;102596.61;;;2.15;96.97
31911;BME280;18457;52.432;16.914;2023-01-25T02:56:30;102593.38;;;2.18;97.33
31911;BME280;18457;52.432;16.914;2023-01-25T02:58:59;102589.38;;;2.17;97.86
31911;BME280;18457;52.432;16.914;2023-01-25T03:01:34;102590.35;;;2.18;97.89
31911;BME280;18457;52.432;16.914;2023-01-25T03:04:03;102586.37;;;2.21;97.76
31911;BME280;18457;52.432;16.914;2023-01-25T03:06:34;102583.76;;;2.30;97.28
31911;BME280;18457;52.432;16.914;2023-01-25T03:09:04;102573.70;;;2.33;96.68
31911;BME280;18457;52.432;16.914;2023-01-25T03:11:33;102570.80;;;2.24;96.66
31911;BME280;18457;52.432;16.914;2023-01-25T03:14:02;102565.95;;;2.11;96.63
31911;BME280;18457;52.432;16.914;2023-01-25T03:16:31;102564.23;;;2.05;97.27
31911;BME280;18457;52.432;16.914;2023-01-25T03:18:59;102563.88;;;2.05;97.53
31911;BME280;18457;52.432;16.914;2023-01-25T03:21:28;102556.74;;;2.16;96.81
31911;BME280;18457;52.432;16.914;2023-01-25T03:23:59;102553.05;;;2.22;96.52
31911;BME280;18457;52.432;16.914;2023-01-25T03:26:33;102549.65;;;2.17;96.71
31911;BME280;18457;52.432;16.914;2023-01-25T03:29:27;102554.11;;;2.02;97.36
31911;BME280;18457;52.432;16.914;2023-01-25T03:31:55;102553.62;;;2.03;98.35
31911;BME280;18457;52.432;16.914;2023-01-25T03:34:24;102546.80;;;2.02;98.13
31911;BME280;18457;52.432;16.914;2023-01-25T03:36:53;102545.60;;;2.03;97.51
31911;BME280;18457;52.432;16.914;2023-01-25T03:39:21;102542.09;;;1.96;97.77
31911;BME280;18457;52.432;16.914;2023-01-25T03:41:50;102534.27;;;1.89;98.51
31911;BME280;18457;52.432;16.914;2023-01-25T03:44:18;102533.10;;;1.87;98.94
31911;BME280;18457;52.432;16.914;2023-01-25T03:46:46;102532.98;;;1.84;99.08
31911;BME280;18457;52.432;16.914;2023-01-25T03:49:15;102532.13;;;1.81;99.70
31911;BME280;18457;52.432;16.914;2023-01-25T03:51:46;102526.45;;;1.82;99.57
31911;BME280;18457;52.432;16.914;2023-01-25T03:54:14;102524.02;;;1.87;99.59
31911;BME280;18457;52.432;16.914;2023-01-25T03:56:43;102523.77;;;1.93;99.76
31911;BME280;18457;52.432;16.914;2023-01-25T03:59:16;102518.02;;;2.07;99.33
31911;BME280;18457;52.432;16.914;2023-01-25T04:01:45;102512.81;;;2.11;98.49
31911;BME280;18457;52.432;16.914;2023-01-25T04:04:14;102508.92;;;2.00;98.12
31911;BME280;18457;52.432;16.914;2023-01-25T04:06:44;102503.31;;;1.98;98.55
31911;BME280;18457;52.432;16.914;2023-01-25T04:09:12;102506.20;;;1.98;98.92
31911;BME280;18457;52.432;16.914;2023-01-25T04:11:48;102504.48;;;1.96;99.17
31911;BME280;18457;52.432;16.914;2023-01-25T04:14:18;102497.06;;;1.94;98.90
31911;BME280;18457;52.432;16.914;2023-01-25T04:17:01;102501.39;;;1.87;98.72
31911;BME280;18457;52.432;16.914;2023-01-25T04:19:37;102505.17;;;1.87;98.15
31911;BME280;18457;52.432;16.914;2023-01-25T04:22:06;102501.71;;;1.82;98.20
31911;BME280;18457;52.432;16.914;2023-01-25T04:24:38;102497.52;;;1.80;99.10
31911;BME280;18457;52.432;16.914;2023-01-25T04:27:07;102492.95;;;1.77;98.87
31911;BME280;18457;52.432;16.914;2023-01-25T04:29:41;102481.14;;;1.80;98.72
31911;BME280;18457;52.432;16.914;2023-01-25T04:32:14;102475.78;;;1.80;98.06
31911;BME280;18457;52.432;16.914;2023-01-25T04:34:43;102470.42;;;1.87;97.37
31911;BME280;18457;52.432;16.914;2023-01-25T04:37:15;102466.81;;;1.87;97.29
31911;BME280;18457;52.432;16.914;2023-01-25T04:39:58;102466.38;;;1.89;97.27
31911;BME280;18457;52.432;16.914;2023-01-25T04:42:27;102466.05;;;1.85;97.63
31911;BME280;18457;52.432;16.914;2023-01-25T04:44:57;102469.80;;;1.89;97.80
31911;BME280;18457;52.432;16.914;2023-01-25T04:47:27;102464.23;;;1.93;97.63
31911;BME280;18457;52.432;16.914;2023-01-25T04:49:56;102463.02;;;2.01;97.08
31911;BME280;18457;52.432;16.914;2023-01-25T04:52:25;102467.61;;;2.12;96.68
31911;BME280;18457;52.432;16.914;2023-01-25T04:54:53;102465.85;;;2.01;96.73
31911;BME280;18457;52.432;16.914;2023-01-25T04:57:22;102463.36;;;1.97;96.44
31911;BME280;18457;52.432;16.914;2023-01-25T04:59:52;102462.88;;;1.86;96.42
31911;BME280;18457;52.432;16.914;2023-01-25T05:02:22;102464.04;;;1.96;96.26
31911;BME280;18457;52.432;16.914;2023-01-25T05:04:50;102461.68;;;1.87;96.17
31911;BME280;18457;52.432;16.914;2023-01-25T05:07:20;102457.39;;;1.95;96.27
31911;BME280;18457;52.432;16.914;2023-01-25T05:09:48;102448.95;;;1.90;96.49
31911;BME280;18457;52.432;16.914;2023-01-25T05:12:19;102450.70;;;1.97;96.61
31911;BME280;18457;52.432;16.914;2023-01-25T05:14:54;102451.45;;;1.98;96.35
31911;BME280;18457;52.432;16.914;2023-01-25T05:17:23;102452.31;;;2.01;96.08
31911;BME280;18457;52.432;16.914;2023-01-25T05:19:52;102447.86;;;2.01;95.93
31911;BME280;18457;52.432;16.914;2023-01-25T05:22:22;102442.73;;;2.06;95.49
31911;BME280;18457;52.432;16.914;2023-01-25T05:24:54;102439.28;;;2.05;94.75
31911;BME280;18457;52.432;16.914;2023-01-25T05:27:22;102436.21;;;2.04;94.63
31911;BME280;18457;52.432;16.914;2023-01-25T05:29:54;102439.14;;;2.06;94.54
31911;BME280;18457;52.432;16.914;2023-01-25T05:32:50;102435.34;;;2.04;94.51
31911;BME280;18457;52.432;16.914;2023-01-25T05:35:18;102442.22;;;2.06;94.77
31911;BME280;18457;52.432;16.914;2023-01-25T05:37:47;102439.17;;;2.06;94.82
31911;BME280;18457;52.432;16.914;2023-01-25T05:40:19;102440.27;;;2.07;94.18
31911;BME280;18457;52.432;16.914;2023-01-25T05:42:54;102439.66;;;2.13;93.53
31911;BME280;18457;52.432;16.914;2023-01-25T05:45:22;102434.27;;;2.09;92.77
31911;BME280;18457;52.432;16.914;2023-01-25T05:47:55;102434.37;;;2.03;93.68
31911;BME280;18457;52.432;16.914;2023-01-25T05:50:23;102430.84;;;1.99;93.12
31911;BME280;18457;52.432;16.914;2023-01-25T05:53:04;102434.17;;;2.02;92.87
31911;BME280;18457;52.432;16.914;2023-01-25T05:55:35;102434.88;;;2.06;92.30
31911;BME280;18457;52.432;16.914;2023-01-25T05:58:07;102433.30;;;2.07;91.53
31911;BME280;18457;52.432;16.914;2023-01-25T06:00:35;102438.89;;;2.12;91.26
31911;BME280;18457;52.432;16.914;2023-01-25T06:03:04;102436.54;;;2.07;91.60
31911;BME280;18457;52.432;16.914;2023-01-25T06:05:36;102436.38;;;2.00;91.36
31911;BME280;18457;52.432;16.914;2023-01-25T06:08:05;102437.27;;;1.95;91.53
31911;BME280;18457;52.432;16.914;2023-01-25T06:10:43;102435.02;;;1.97;91.47
31911;BME280;18457;52.432;16.914;2023-01-25T06:13:11;102430.76;;;2.06;91.77
31911;BME280;18457;52.432;16.914;2023-01-25T06:15:39;102433.95;;;1.97;92.18
31911;BME280;18457;52.432;16.914;2023-01-25T06:18:28;102433.75;;;1.92;92.77
31911;BME280;18457;52.432;16.914;2023-01-25T06:21:17;102429.70;;;1.97;92.56
31911;BME280;18457;52.432;16.914;2023-01-25T06:23:45;102426.77;;;1.95;92.34
31911;BME280;18457;52.432;16.914;2023-01-25T06:26:15;102427.83;;;1.95;92.53
31911;BME280;18457;52.432;16.914;2023-01-25T06:28:43;102424.02;;;1.98;92.68
31911;BME280;18457;52.432;16.914;2023-01-25T06:31:13;102426.77;;;1.96;92.05
31911;BME280;18457;52.432;16.914;2023-01-25T06:33:46;102429.68;;;1.97;92.25
31911;BME280;18457;52.432;16.914;2023-01-25T06:36:18;102428.40;;;1.97;92.55
31911;BME280;18457;52.432;16.914;2023-01-25T06:38:49;102425.99;;;1.90;92.75
31911;BME280;18457;52.432;16.914;2023-01-25T06:41:19;102427.09;;;1.91;92.43
31911;BME280;18457;52.432;16.914;2023-01-25T06:43:50;102431.38;;;1.95;92.46
31911;BME280;18457;52.432;16.914;2023-01-25T06:46:19;102428.77;;;1.93;93.14
31911;BME280;18457;52.432;16.914;2023-01-25T06:48:47;102428.15;;;1.87;92.63
31911;BME280;18457;52.432;16.914;2023-01-25T06:51:16;102427.92;;;1.86;93.01
31911;BME280;18457;52.432;16.914;2023-01-25T06:53:46;102427.47;;;1.99;92.32
31911;BME280;18457;52.432;16.914;2023-01-25T06:56:16;102432.52;;;1.97;92.04
31911;BME280;18457;52.432;16.914;2023-01-25T06:58:46;102434.53;;;1.90;91.65
31911;BME280;18457;52.432;16.914;2023-01-25T07:01:15;102432.83;;;1.84;91.92
31911;BME280;18457;52.432;16.914;2023-01-25T07:03:48;102433.31;;;1.91;92.09
31911;BME280;18457;52.432;16.914;2023-01-25T07:06:18;102421.75;;;1.83;92.28
31911;BME280;18457;52.432;16.914;2023-01-25T07:08:47;102418.19;;;1.79;92.28
31911;BME280;18457;52.432;16.914;2023-01-25T07:11:16;102415.55;;;1.84;91.75
31911;BME280;18457;52.432;16.914;2023-01-25T07:13:46;102412.90;;;1.84;91.19
31911;BME280;18457;52.432;16.914;2023-01-25T07:16:17;102409.96;;;1.86;92.00
31911;BME280;18457;52.432;16.914;2023-01-25T07:18:46;102409.18;;;1.85;92.45
31911;BME280;18457;52.432;16.914;2023-01-25T07:21:16;102411.14;;;1.89;91.95
31911;BME280;18457;52.432;16.914;2023-01-25T07:23:45;102408.80;;;1.92;91.31
31911;BME280;18457;52.432;16.914;2023-01-25T07:26:16;102402.59;;;2.18;97.38
31911;BME280;18457;52.432;16.914;2023-01-25T07:28:46;102404.34;;;3.00;100.00
31911;BME280;18457;52.432;16.914;2023-01-25T07:31:16;102404.55;;;2.56;97.17
31911;BME280;18457;52.432;16.914;2023-01-25T07:33:48;102403.81;;;2.34;93.29
31911;BME280;18457;52.432;16.914;2023-01-25T07:36:17;102401.15;;;2.30;92.69
31911;BME280;18457;52.432;16.914;2023-01-25T07:38:47;102394.14;;;2.21;92.83
31911;BME280;18457;52.432;16.914;2023-01-25T07:41:16;102396.77;;;2.15;92.63
31911;BME280;18457;52.432;16.914;2023-01-25T07:43:45;102394.24;;;2.10;92.25
31911;BME280;18457;52.432;16.914;2023-01-25T07:46:18;102383.58;;;2.11;91.84
31911;BME280;18457;52.432;16.914;2023-01-25T07:48:48;102379.57;;;2.13;91.49
31911;BME280;18457;52.432;16.914;2023-01-25T07:51:19;102381.12;;;2.16;90.95
31911;BME280;18457;52.432;16.914;2023-01-25T07:53:52;102384.40;;;2.18;91.36
31911;BME280;18457;52.432;16.914;2023-01-25T07:56:23;102377.83;;;2.18;91.68
31911;BME280;18457;52.432;16.914;2023-01-25T07:58:55;102373.02;;;2.14;91.81
31911;BME280;18457;52.432;16.914;2023-01-25T08:01:26;102366.35;;;2.08;91.20
31911;BME280;18457;52.432;16.914;2023-01-25T08:03:55;102361.17;;;2.08;91.55
31911;BME280;18457;52.432;16.914;2023-01-25T08:06:25;102362.46;;;2.05;91.83
31911;BME280;18457;52.432;16.914;2023-01-25T08:08:58;102362.09;;;2.09;91.95
31911;BME280;18457;52.432;16.914;2023-01-25T08:11:28;102351.89;;;2.08;91.69
31911;BME280;18457;52.432;16.914;2023-01-25T08:13:57;102351.89;;;2.04;91.61
31911;BME280;18457;52.432;16.914;2023-01-25T08:16:30;102351.11;;;2.06;91.26
31911;BME280;18457;52.432;16.914;2023-01-25T08:19:00;102361.17;;;1.99;91.62
31911;BME280;18457;52.432;16.914;2023-01-25T08:21:31;102365.16;;;1.89;91.87
31911;BME280;18457;52.432;16.914;2023-01-25T08:24:02;102358.33;;;2.00;91.59
31911;BME280;18457;52.432;16.914;2023-01-25T08:26:31;102358.35;;;1.97;91.53
31911;BME280;18457;52.432;16.914;2023-01-25T08:29:00;102353.67;;;1.95;91.65
31911;BME280;18457;52.432;16.914;2023-01-25T08:31:30;102348.42;;;2.06;91.43
31911;BME280;18457;52.432;16.914;2023-01-25T08:34:03;102349.99;;;2.00;91.68
31911;BME280;18457;52.432;16.914;2023-01-25T08:36:32;102341.45;;;2.01;91.97
31911;BME280;18457;52.432;16.914;2023-01-25T08:39:04;102340.91;;;2.14;91.63
31911;BME280;18457;52.432;16.914;2023-01-25T08:41:34;102334.08;;;2.08;91.38
31911;BME280;18457;52.432;16.914;2023-01-25T08:44:04;102336.55;;;1.99;90.84
31911;BME280;18457;52.432;16.914;2023-01-25T08:46:33;102336.52;;;1.94;90.93
31911;BME280;18457;52.432;16.914;2023-01-25T08:49:03;102335.52;;;1.88;91.54
31911;BME280;18457;52.432;16.914;2023-01-25T08:51:32;102332.55;;;1.93;92.94
31911;BME280;18457;52.432;16.914;2023-01-25T08:54:06;102328.85;;;1.98;92.66
31911;BME280;18457;52.432;16.914;2023-01-25T08:56:36;102327.17;;;2.05;91.82
31911;BME280;18457;52.432;16.914;2023-01-25T08:59:08;102319.30;;;2.04;91.70
31911;BME280;18457;52.432;16.914;2023-01-25T09:01:38;102312.55;;;1.97;91.98
31911;BME280;18457;52.432;16.914;2023-01-25T09:04:07;102312.04;;;1.93;92.45
31911;BME280;18457;52.432;16.914;2023-01-25T09:06:36;102305.87;;;1.98;92.62
31911;BME280;18457;52.432;16.914;2023-01-25T09:09:04;102305.09;;;2.06;92.56
31911;BME280;18457;52.432;16.914;2023-01-25T09:11:35;102300.89;;;2.07;92.10
31911;BME280;18457;52.432;16.914;2023-01-25T09:14:05;102306.30;;;2.04;92.10
31911;BME280;18457;52.432;16.914;2023-01-25T09:16:34;102311.36;;;2.10;92.00
31911;BME280;18457;52.432;16.914;2023-01-25T09:19:04;102312.58;;;2.10;92.02
31911;BME280;18457;52.432;16.914;2023-01-25T09:21:35;102313.55;;;2.07;92.07
31911;BME280;18457;52.432;16.914;2023-01-25T09:24:05;102312.96;;;2.02;92.01
31911;BME280;18457;52.432;16.914;2023-01-25T09:26:38;102308.11;;;1.92;92.23
31911;BME280;18457;52.432;16.914;2023-01-25T09:29:07;102305.17;;;1.94;92.30
31911;BME280;18457;52.432;16.914;2023-01-25T09:31:38;102303.13;;;1.84;92.47
31911;BME280;18457;52.432;16.914;2023-01-25T09:34:18;102305.11;;;1.80;92.94
31911;BME280;18457;52.432;16.914;2023-01-25T09:36:47;102305.77;;;1.79;93.49
31911;BME280;18457;52.432;16.914;2023-01-25T09:39:15;102303.20;;;1.82;93.04
31911;BME280;18457;52.432;16.914;2023-01-25T09:42:09;102299.02;;;1.88;93.07
31911;BME280;18457;52.432;16.914;2023-01-25T09:45:08;102297.73;;;1.87;93.16
31911;BME280;18457;52.432;16.914;2023-01-25T09:47:44;102292.87;;;1.94;93.14
31911;BME280;18457;52.432;16.914;2023-01-25T09:50:26;102291.77;;;1.94;93.11
31911;BME280;18457;52.432;16.914;2023-01-25T09:53:14;102289.96;;;1.89;92.74
31911;BME280;18457;52.432;16.914;2023-01-25T09:55:44;102282.14;;;2.02;92.36
31911;BME280;18457;52.432;16.914;2023-01-25T09:58:20;102279.79;;;2.06;92.03
31911;BME280;18457;52.432;16.914;2023-01-25T10:00:53;102273.42;;;2.02;92.22
31911;BME280;18457;52.432;16.914;2023-01-25T10:03:30;102274.05;;;2.05;92.24
31911;BME280;18457;52.432;16.914;2023-01-25T10:06:02;102271.63;;;2.15;91.90
31911;BME280;18457;52.432;16.914;2023-01-25T10:08:34;102267.50;;;2.14;91.59
31911;BME280;18457;52.432;16.914;2023-01-25T10:11:13;102265.23;;;2.16;91.97
31911;BME280;18457;52.432;16.914;2023-01-25T10:13:48;102265.39;;;2.20;91.61
31911;BME280;18457;52.432;16.914;2023-01-25T10:16:21;102259.59;;;2.13;91.80
31911;BME280;18457;52.432;16.914;2023-01-25T10:18:58;102252.95;;;2.07;91.88
31911;BME280;18457;52.432;16.914;2023-01-25T10:21:31;102256.07;;;2.05;92.32
31911;BME280;18457;52.432;16.914;2023-01-25T10:24:18;102254.98;;;2.05;92.92
31911;BME280;18457;52.432;16.914;2023-01-25T10:26:55;102257.48;;;2.14;93.17
31911;BME280;18457;52.432;16.914;2023-01-25T10:29:27;102251.08;;;2.23;92.40
31911;BME280;18457;52.432;16.914;2023-01-25T10:32:01;102251.23;;;2.27;92.07
31911;BME280;18457;52.432;16.914;2023-01-25T10:34:34;102245.59;;;2.24;92.35
31911;BME280;18457;52.432;16.914;2023-01-25T10:37:25;102241.46;;;2.23;92.28
31911;BME280;18457;52.432;16.914;2023-01-25T10:40:00;102241.19;;;2.30;91.74
31911;BME280;18457;52.432;16.914;2023-01-25T10:42:35;102238.75;;;2.36;91.31
31911;BME280;18457;52.432;16.914;2023-01-25T10:45:11;102228.46;;;2.37;90.87
31911;BME280;18457;52.432;16.914;2023-01-25T10:47:42;102223.11;;;2.37;90.61
31911;BME280;18457;52.432;16.914;2023-01-25T10:50:43;102221.58;;;2.30;90.83
31911;BME280;18457;52.432;16.914;2023-01-25T10:53:33;102220.80;;;2.28;91.11
31911;BME280;18457;52.432;16.914;2023-01-25T10:56:15;102226.89;;;2.16;91.25
31911;BME280;18457;52.432;16.914;2023-01-25T10:58:47;102218.26;;;2.14;91.34
31911;BME280;18457;52.432;16.914;2023-01-25T11:01:27;102211.83;;;2.22;90.96
31911;BME280;18457;52.432;16.914;2023-01-25T11:03:57;102203.80;;;2.18;90.85
31911;BME280;18457;52.432;16.914;2023-01-25T11:06:33;102200.95;;;2.22;91.05
31911;BME280;18457;52.432;16.914;2023-01-25T11:09:29;102193.83;;;2.18;91.09
31911;BME280;18457;52.432;16.914;2023-01-25T11:11:59;102187.72;;;2.21;90.85
31911;BME280;18457;52.432;16.914;2023-01-25T11:14:30;102184.86;;;2.12;90.97
31911;BME280;18457;52.432;16.914;2023-01-25T11:17:00;102179.52;;;2.12;91.28
31911;BME280;18457;52.432;16.914;2023-01-25T11:19:32;102171.95;;;2.19;91.29
31911;BME280;18457;52.432;16.914;2023-01-25T11:22:05;102167.14;;;2.19;91.15
31911;BME280;18457;52.432;16.914;2023-01-25T11:24:46;102165.60;;;2.21;91.45
31911;BME280;18457;52.432;16.914;2023-01-25T11:27:18;102161.52;;;2.21;91.14
31911;BME280;18457;52.432;16.914;2023-01-25T11:30:07;102154.27;;;2.14;91.34
31911;BME280;18457;52.432;16.914;2023-01-25T11:32:39;102149.96;;;2.13;92.56
31911;BME280;18457;52.432;16.914;2023-01-25T11:35:13;102154.78;;;2.61;98.69
31911;BME280;18457;52.432;16.914;2023-01-25T11:37:50;102151.83;;;2.48;95.54
31911;BME280;18457;52.432;16.914;2023-01-25T11:40:32;102144.93;;;2.35;91.99
31911;BME280;18457;52.432;16.914;2023-01-25T11:43:15;102138.03;;;2.32;91.40
31911;BME280;18457;52.432;16.914;2023-01-25T11:46:20;102142.98;;;2.22;91.54
31911;BME280;18457;52.432;16.914;2023-01-25T11:49:04;102137.28;;;2.22;92.05
31911;BME280;18457;52.432;16.914;2023-01-25T11:51:40;102130.44;;;2.39;91.32
31911;BME280;18457;52.432;16.914;2023-01-25T11:57:21;102126.86;;;2.29;91.04
31911;BME280;18457;52.432;16.914;2023-01-25T12:00:04;102123.02;;;2.31;91.06
31911;BME280;18457;52.432;16.914;2023-01-25T12:03:03;102110.10;;;2.24;91.04
31911;BME280;18457;52.432;16.914;2023-01-25T12:05:47;102104.23;;;2.20;91.44
31911;BME280;18457;52.432;16.914;2023-01-25T12:08:33;102096.55;;;2.15;91.62
31911;BME280;18457;52.432;16.914;2023-01-25T12:11:14;102085.95;;;2.18;91.71
31911;BME280;18457;52.432;16.914;2023-01-25T12:13:54;102084.20;;;4.22;99.68
31911;BME280;18457;52.432;16.914;2023-01-25T12:16:44;102084.17;;;3.52;100.00
31911;BME280;18457;52.432;16.914;2023-01-25T12:19:32;102072.64;;;3.05;94.30
31911;BME280;18457;52.432;16.914;2023-01-25T12:22:29;102063.70;;;2.78;91.58
31911;BME280;18457;52.432;16.914;2023-01-25T12:25:12;102063.69;;;2.68;91.58
31911;BME280;18457;52.432;16.914;2023-01-25T12:27:57;102056.88;;;2.62;91.84
31911;BME280;18457;52.432;16.914;2023-01-25T12:30:39;102054.67;;;2.65;91.69
31911;BME280;18457;52.432;16.914;2023-01-25T12:33:14;102045.77;;;2.55;91.72
31911;BME280;18457;52.432;16.914;2023-01-25T12:35:47;102038.55;;;2.42;91.94
31911;BME280;18457;52.432;16.914;2023-01-25T12:38:24;102039.98;;;2.32;92.59
31911;BME280;18457;52.432;16.914;2023-01-25T12:40:57;102035.58;;;2.34;92.77
31911;BME280;18457;52.432;16.914;2023-01-25T12:43:30;102028.92;;;2.33;92.39
31911;BME280;18457;52.432;16.914;2023-01-25T12:46:13;102024.52;;;2.29;92.79
31911;BME280;18457;52.432;16.914;2023-01-25T12:48:46;102020.92;;;2.33;92.56
31911;BME280;18457;52.432;16.914;2023-01-25T12:51:17;102017.77;;;2.30;92.91
31911;BME280;18457;52.432;16.914;2023-01-25T12:53:47;102010.98;;;2.35;92.97
31911;BME280;18457;52.432;16.914;2023-01-25T12:56:30;102007.35;;;2.33;92.70
31911;BME280;18457;52.432;16.914;2023-01-25T12:59:05;101999.29;;;2.22;92.62
31911;BME280;18457;52.432;16.914;2023-01-25T13:01:42;101995.62;;;2.19;92.84
31911;BME280;18457;52.432;16.914;2023-01-25T13:04:24;101994.98;;;2.26;92.89
31911;BME280;18457;52.432;16.914;2023-01-25T13:06:58;101990.90;;;2.27;92.92
31911;BME280;18457;52.432;16.914;2023-01-25T13:09:34;101984.09;;;2.30;92.72
31911;BME280;18457;52.432;16.914;2023-01-25T13:12:10;101983.81;;;2.22;92.68
31911;BME280;18457;52.432;16.914;2023-01-25T13:14:40;101981.02;;;2.34;92.64
31911;BME280;18457;52.432;16.914;2023-01-25T13:17:20;101982.52;;;2.36;92.58
31911;BME280;18457;52.432;16.914;2023-01-25T13:19:50;101981.81;;;2.37;92.38
31911;BME280;18457;52.432;16.914;2023-01-25T13:22:59;101975.37;;;2.41;92.03
31911;BME280;18457;52.432;16.914;2023-01-25T13:25:27;101972.83;;;2.40;92.15